GLET03 YSNW-YSNW
Flight info
| Callsign | GLET03 |
|---|---|
| Flight time | 0h 5m |
| Altitude | 7000 |
| Route | NWR |
| Aircraft | H60/M-SDFHITUY/C |
Departure
| Time | 2026-04-30 03:57 |
|---|---|
| Airport | Naval Air Station Nowra - HMAS Albatross (YSNW) |
Arrival
| Time | 2026-04-30 04:02 |
|---|---|
| Airport | Naval Air Station Nowra - HMAS Albatross (YSNW) |
| Time | Latitude | Longitude | Altitude | Speed | Heading |
|---|---|---|---|---|---|
| 2026-04-30 03:45 | -34.94417 | 150.53547 | 358 ft | 0 kts | 225° |
| 2026-04-30 03:50 | -34.94419 | 150.53545 | 356 ft | 2 kts | 225° |
| 2026-04-30 03:51 | -34.94433 | 150.53529 | 354 ft | 3 kts | 196° |
| 2026-04-30 03:51 | -34.94450 | 150.53541 | 359 ft | 3 kts | 134° |
| 2026-04-30 03:51 | -34.94466 | 150.53541 | 356 ft | 3 kts | 227° |
| 2026-04-30 03:51 | -34.94480 | 150.53523 | 359 ft | 3 kts | 227° |
| 2026-04-30 03:52 | -34.94499 | 150.53500 | 358 ft | 5 kts | 225° |
| 2026-04-30 03:52 | -34.94526 | 150.53468 | 358 ft | 5 kts | 224° |
| 2026-04-30 03:52 | -34.94551 | 150.53438 | 358 ft | 5 kts | 224° |
| 2026-04-30 03:52 | -34.94574 | 150.53411 | 357 ft | 4 kts | 215° |
| 2026-04-30 03:53 | -34.94599 | 150.53399 | 363 ft | 4 kts | 184° |
| 2026-04-30 03:53 | -34.94613 | 150.53397 | 359 ft | 4 kts | 184° |
| 2026-04-30 03:53 | -34.94658 | 150.53394 | 358 ft | 7 kts | 186° |
| 2026-04-30 03:53 | -34.94692 | 150.53390 | 359 ft | 3 kts | 185° |
| 2026-04-30 03:54 | -34.94701 | 150.53389 | 362 ft | 1 kts | 186° |
| 2026-04-30 03:54 | -34.94720 | 150.53387 | 361 ft | 5 kts | 182° |
| 2026-04-30 03:54 | -34.94738 | 150.53388 | 359 ft | 0 kts | 166° |
| 2026-04-30 03:54 | -34.94754 | 150.53408 | 360 ft | 5 kts | 96° |
| 2026-04-30 03:55 | -34.94758 | 150.53457 | 360 ft | 5 kts | 95° |
| 2026-04-30 03:55 | -34.94758 | 150.53466 | 360 ft | 0 kts | 94° |
| 2026-04-30 03:56 | -34.94757 | 150.53467 | 369 ft | 1 kts | 95° |
| 2026-04-30 03:56 | -34.94764 | 150.53578 | 432 ft | 34 kts | 91° |
| 2026-04-30 03:56 | -34.94787 | 150.54024 | 661 ft | 67 kts | 95° |
| 2026-04-30 03:57 | -34.94823 | 150.54676 | 892 ft | 85 kts | 95° |
| 2026-04-30 03:57 | -34.94885 | 150.55408 | 1053 ft | 85 kts | 94° |
| 2026-04-30 03:57 | -34.95001 | 150.56127 | 1219 ft | 89 kts | 122° |
| 2026-04-30 03:57 | -34.95410 | 150.56613 | 1192 ft | 84 kts | 171° |
| 2026-04-30 03:58 | -34.95966 | 150.56438 | 1177 ft | 88 kts | 223° |
| 2026-04-30 03:58 | -34.96221 | 150.55757 | 1184 ft | 94 kts | 276° |
| 2026-04-30 03:58 | -34.96249 | 150.54826 | 1195 ft | 110 kts | 276° |
| 2026-04-30 03:58 | -34.96246 | 150.53908 | 1199 ft | 110 kts | 276° |
| 2026-04-30 03:59 | -34.96237 | 150.52982 | 1192 ft | 111 kts | 276° |
| 2026-04-30 03:59 | -34.96223 | 150.52046 | 1195 ft | 108 kts | 277° |
| 2026-04-30 03:59 | -34.96216 | 150.51119 | 1189 ft | 110 kts | 280° |
| 2026-04-30 03:59 | -34.96136 | 150.50233 | 1190 ft | 103 kts | 298° |
| 2026-04-30 04:00 | -34.95679 | 150.49641 | 1196 ft | 94 kts | 344° |
| 2026-04-30 04:00 | -34.95072 | 150.49694 | 1190 ft | 89 kts | 31° |
| 2026-04-30 04:00 | -34.94692 | 150.50256 | 1192 ft | 88 kts | 78° |
| 2026-04-30 04:00 | -34.94685 | 150.50989 | 1193 ft | 83 kts | 96° |
| 2026-04-30 04:01 | -34.94766 | 150.51697 | 1191 ft | 85 kts | 96° |
| 2026-04-30 04:01 | -34.94859 | 150.52400 | 1190 ft | 87 kts | 95° |
| 2026-04-30 04:01 | -34.94898 | 150.53151 | 842 ft | 90 kts | 87° |
| 2026-04-30 04:01 | -34.94742 | 150.53838 | 531 ft | 80 kts | 56° |
| 2026-04-30 04:02 | -34.94427 | 150.54286 | 465 ft | 60 kts | 45° |
| 2026-04-30 04:02 | -34.94159 | 150.54629 | 445 ft | 48 kts | 43° |
| 2026-04-30 04:02 | -34.93989 | 150.54854 | 450 ft | 28 kts | 39° |
| 2026-04-30 04:02 | -34.93876 | 150.55002 | 452 ft | 21 kts | 40° |
| 2026-04-30 04:03 | -34.93854 | 150.55128 | 425 ft | 10 kts | 43° |
| 2026-04-30 04:03 | -34.93829 | 150.55169 | 406 ft | 2 kts | 44° |
| 2026-04-30 04:03 | -34.93816 | 150.55188 | 409 ft | 5 kts | 44° |
| 2026-04-30 04:03 | -34.93813 | 150.55209 | 388 ft | 3 kts | 41° |
| 2026-04-30 04:04 | -34.93805 | 150.55219 | 376 ft | 2 kts | 41° |
| 2026-04-30 04:04 | -34.93805 | 150.55218 | 368 ft | 0 kts | 44° |
| 2026-04-30 04:05 | -34.93803 | 150.55218 | 372 ft | 4 kts | 44° |
| 2026-04-30 04:05 | -34.93762 | 150.55220 | 373 ft | 4 kts | 43° |
| 2026-04-30 04:05 | -34.93737 | 150.55256 | 375 ft | 7 kts | 25° |
| 2026-04-30 04:05 | -34.93707 | 150.55227 | 370 ft | 7 kts | 221° |
| 2026-04-30 04:06 | -34.93734 | 150.55193 | 373 ft | 6 kts | 221° |
| 2026-04-30 04:06 | -34.93770 | 150.55149 | 374 ft | 7 kts | 219° |
| 2026-04-30 04:06 | -34.93815 | 150.55137 | 373 ft | 9 kts | 153° |
| 2026-04-30 04:06 | -34.93806 | 150.55187 | 378 ft | 1 kts | 44° |
| 2026-04-30 04:07 | -34.93808 | 150.55207 | 378 ft | 3 kts | 43° |
| 2026-04-30 04:07 | -34.93806 | 150.55217 | 368 ft | 1 kts | 45° |
| 2026-04-30 04:08 | -34.93762 | 150.55239 | 376 ft | 9 kts | 44° |
| 2026-04-30 04:08 | -34.93706 | 150.55254 | 380 ft | 9 kts | 293° |
| 2026-04-30 04:08 | -34.93732 | 150.55196 | 385 ft | 8 kts | 224° |
| 2026-04-30 04:08 | -34.93780 | 150.55140 | 384 ft | 8 kts | 214° |
| 2026-04-30 04:09 | -34.93826 | 150.55168 | 388 ft | 13 kts | 89° |
| 2026-04-30 04:09 | -34.93798 | 150.55222 | 384 ft | 3 kts | 44° |
| 2026-04-30 04:09 | -34.93787 | 150.55240 | 369 ft | 1 kts | 45° |
| 2026-04-30 04:10 | -34.93754 | 150.55258 | 407 ft | 20 kts | 11° |
| 2026-04-30 04:10 | -34.93788 | 150.55069 | 477 ft | 38 kts | 225° |
| 2026-04-30 04:10 | -34.94026 | 150.54782 | 489 ft | 58 kts | 227° |
| 2026-04-30 04:10 | -34.94351 | 150.54404 | 498 ft | 68 kts | 226° |
| 2026-04-30 04:11 | -34.94682 | 150.54050 | 520 ft | 55 kts | 224° |
| 2026-04-30 04:11 | -34.94933 | 150.53801 | 512 ft | 38 kts | 224° |
| 2026-04-30 04:11 | -34.95131 | 150.53658 | 476 ft | 28 kts | 210° |
| 2026-04-30 04:11 | -34.95273 | 150.53574 | 454 ft | 18 kts | 208° |
| 2026-04-30 04:12 | -34.95361 | 150.53522 | 441 ft | 10 kts | 209° |
| 2026-04-30 04:12 | -34.95391 | 150.53498 | 429 ft | 3 kts | 210° |
| 2026-04-30 04:12 | -34.95416 | 150.53488 | 421 ft | 2 kts | 259° |
| 2026-04-30 04:12 | -34.95418 | 150.53479 | 401 ft | 2 kts | 274° |
| 2026-04-30 04:13 | -34.95418 | 150.53474 | 393 ft | 0 kts | 275° |
| 2026-04-30 04:13 | -34.95415 | 150.53478 | 404 ft | 3 kts | 275° |
| 2026-04-30 04:14 | -34.95395 | 150.53470 | 425 ft | 13 kts | 279° |
| 2026-04-30 04:14 | -34.95435 | 150.53310 | 439 ft | 29 kts | 221° |
| 2026-04-30 04:14 | -34.95582 | 150.53345 | 468 ft | 19 kts | 99° |
| 2026-04-30 04:14 | -34.95609 | 150.53496 | 447 ft | 16 kts | 324° |
| 2026-04-30 04:15 | -34.95543 | 150.53509 | 415 ft | 11 kts | 268° |
| 2026-04-30 04:15 | -34.95524 | 150.53479 | 408 ft | 1 kts | 274° |
| 2026-04-30 04:15 | -34.95524 | 150.53469 | 393 ft | 0 kts | 276° |
| 2026-04-30 04:17 | -34.95520 | 150.53490 | 401 ft | 6 kts | 278° |
| 2026-04-30 04:17 | -34.95469 | 150.53506 | 431 ft | 23 kts | 313° |
| 2026-04-30 04:17 | -34.95281 | 150.53464 | 461 ft | 25 kts | 359° |
| 2026-04-30 04:17 | -34.95096 | 150.53468 | 467 ft | 34 kts | 9° |
| 2026-04-30 04:18 | -34.94874 | 150.53513 | 466 ft | 29 kts | 4° |
| 2026-04-30 04:18 | -34.94708 | 150.53543 | 465 ft | 20 kts | 6° |
| 2026-04-30 04:18 | -34.94589 | 150.53558 | 453 ft | 14 kts | 3° |
| 2026-04-30 04:18 | -34.94500 | 150.53582 | 446 ft | 15 kts | 322° |
| 2026-04-30 04:19 | -34.94412 | 150.53559 | 380 ft | 5 kts | 221° |
| 2026-04-30 04:19 | -34.94414 | 150.53550 | 362 ft | 1 kts | 223° |
| 2026-04-30 04:19 | -34.94417 | 150.53548 | 358 ft | 1 kts | 227° |
| 2026-04-30 04:19 | -34.94419 | 150.53545 | 355 ft | 0 kts | 225° |